Eagle, CO (81631)

3:40 PM MDT on August 20, 2014 (GMT -0600)
The Orchard | Change Station
CLOSE
Current Station
Personal Weather Station
Location: Eagle, CO
Elevation: 6700 ft
Nearby Weather Stations

Elev 6700 ft 39.64 °N, 106.82 °W | Updated 6 seconds ago

Scattered Clouds
Scattered Clouds
69.6 °F
Feels Like 69.6 °F
N
0.0
Wind Variable Wind from South
Gusts 0.0 mph

Today
High -- | Low -- °F
--% Chance of Precip.
Yesterday
High -- | Low -- °F
Precip. -- in
6:24 AM 7:56 PM
Waning Crescent, 19% visible
Pressure 30.12 in
Visibility 10.0 miles
Clouds Few 8000 ft
Scattered Clouds 11000 ft
Dew Point 51 °F
Humidity 52%
Rainfall 0.02 in
Snow Depth 9 in
UV 8 out of 12
Pollen 5.60 out of 12
Air Quality Not available.
Flu Activity Not available.
METAR KEGE 202050Z 20011G16KT 10SM FEW080 SCT110 23/08 A3012

More Conditions Fewer Conditions

Pressure 30.12 in
Visibility 10.0 miles
Clouds Few 8000 ft
Scattered Clouds 11000 ft
Dew Point 51 °F
Humidity 52%
Rainfall 0.02 in
Snow Depth 9 in
UV 8 out of 12
Pollen 5.60 out of 12
Air Quality Not available.
Flu Activity Not available.
METAR KEGE 202050Z 20011G16KT 10SM FEW080 SCT110 23/08 A3012

More Conditions Fewer Conditions

10-Day Weather Forecast

Almanac

Astronomy

Aug. 20, 2014 Rise Set
Actual Time 6:24 AM MDT 7:56 PM MDT
Civil Twilight 5:55 AM MDT 8:24 PM MDT
Nautical Twilight 5:21 AM MDT 8:58 PM MDT
Astronomical Twilight 4:45 AM MDT 9:34 PM MDT
Moon 2:06 AM MDT 4:43 PM MDT
Length of Visible Light 14h 28m
Length of Day
13h 31m
Tomorrow will be 2m 21s shorter.
Waning Crescent, 19% of the Moon is Illuminated
Today
Waning Crescent
Aug 25
New
Sep 2
First Quarter
Sep 8
Full
Sep 15
Last Quarter

Today's Extremes

State Highs State Lows

Community

WunderPhotos

Upload Photos

1,745,768 photos uploaded!

WunderBlogs® & News

Nearby

Snow Depth

Station Depth Elevation
Mccoy Park 9 in 9480 ft
Kiln 0 in 9600 ft
Summit Ranch 0 in 9400 ft
Independence Pass 191 in 10600 ft
North Lost Trail 0 in 9200 ft

Earthquake Activity

City Distance Mag. Time & Date
No recent earthquake activity has been reported nearby.
Minimum magnitude displayed is 2.5.

Coastal Water Temperatures

Place Temperature
No Stations Reporting

Nearby Weather Stations